createdAt,value
2022-11-15T00:01:19.106Z,9.36
2022-11-15T00:04:35.308Z,9.30
2022-11-15T00:07:55.960Z,9.18
2022-11-15T00:11:12.930Z,9.26
2022-11-15T00:14:28.008Z,9.31
2022-11-15T00:17:43.012Z,9.25
2022-11-15T00:21:05.252Z,9.27
2022-11-15T00:24:21.528Z,9.34
2022-11-15T00:27:37.378Z,9.18
2022-11-15T00:30:53.287Z,9.12
2022-11-15T00:34:10.580Z,9.20
2022-11-15T00:37:26.350Z,9.42
2022-11-15T00:40:42.410Z,9.52
2022-11-15T00:43:58.290Z,9.63
2022-11-15T00:47:14.521Z,9.68
2022-11-15T00:50:30.279Z,9.62
2022-11-15T00:53:46.315Z,9.44
2022-11-15T00:57:02.164Z,9.49
2022-11-15T01:00:18.250Z,9.55
2022-11-15T01:03:35.069Z,9.59
2022-11-15T01:06:50.411Z,9.65
2022-11-15T01:10:06.838Z,9.67
2022-11-15T01:13:22.376Z,9.77
2022-11-15T01:16:38.402Z,9.65
2022-11-15T01:19:54.331Z,9.65
2022-11-15T01:23:10.587Z,9.48
2022-11-15T01:26:26.332Z,9.60
2022-11-15T01:29:42.426Z,9.80
2022-11-15T01:32:58.447Z,9.90
2022-11-15T01:36:16.429Z,9.90
2022-11-15T01:39:32.288Z,9.85
2022-11-15T01:42:48.343Z,9.74
2022-11-15T01:46:24.578Z,9.87
2022-11-15T01:49:41.792Z,9.89
2022-11-15T01:52:57.307Z,9.92
2022-11-15T01:56:15.290Z,10.00
2022-11-15T01:59:31.314Z,10.20
2022-11-15T02:02:47.409Z,10.33
2022-11-15T02:06:03.689Z,10.27
2022-11-15T02:09:19.539Z,10.33
2022-11-15T02:12:35.073Z,10.46
2022-11-15T02:16:04.171Z,10.37
2022-11-15T02:19:34.503Z,10.24
2022-11-15T02:23:18.271Z,10.33
2022-11-15T02:27:22.045Z,10.25
2022-11-15T02:30:43.024Z,10.35
2022-11-15T02:34:18.116Z,10.60
2022-11-15T02:37:53.846Z,10.47
2022-11-15T02:41:18.314Z,10.56
2022-11-15T02:44:39.279Z,10.42
2022-11-15T02:47:56.116Z,10.60
2022-11-15T02:51:13.069Z,10.73
2022-11-15T02:54:33.537Z,10.72
2022-11-15T02:57:52.321Z,10.74
2022-11-15T03:01:28.102Z,10.80
2022-11-15T03:05:10.471Z,10.86
2022-11-15T03:08:33.891Z,10.94
2022-11-15T03:11:51.950Z,10.88
2022-11-15T03:15:26.118Z,10.84
2022-11-15T03:18:47.025Z,10.85
2022-11-15T03:22:03.871Z,10.89
2022-11-15T03:25:22.029Z,10.95
2022-11-15T03:29:02.439Z,10.91
2022-11-15T03:32:24.744Z,10.91
2022-11-15T03:35:41.526Z,11.10
2022-11-15T03:38:59.804Z,11.07
2022-11-15T03:42:46.427Z,11.10
2022-11-15T03:46:13.762Z,11.03
2022-11-15T03:49:34.108Z,11.01
2022-11-15T03:52:50.492Z,11.09
2022-11-15T03:56:06.862Z,11.13
2022-11-15T03:59:22.240Z,11.13
2022-11-15T04:02:38.122Z,11.21
2022-11-15T04:05:54.121Z,11.29
2022-11-15T04:09:09.415Z,11.27
2022-11-15T04:12:34.432Z,11.31
2022-11-15T04:15:50.663Z,11.30
2022-11-15T04:19:24.766Z,11.42
2022-11-15T04:22:58.776Z,11.66
2022-11-15T04:26:17.364Z,11.39
2022-11-15T04:29:35.998Z,11.35
2022-11-15T04:32:51.349Z,11.39
2022-11-15T04:36:26.325Z,11.54
2022-11-15T04:39:42.225Z,11.53
2022-11-15T04:43:03.431Z,11.62
2022-11-15T04:46:23.520Z,11.64
2022-11-15T04:49:39.351Z,11.56
2022-11-15T04:52:55.405Z,11.52
2022-11-15T04:56:11.582Z,11.57
2022-11-15T04:59:27.185Z,11.75
2022-11-15T05:03:02.210Z,11.84
2022-11-15T05:06:17.214Z,11.87
2022-11-15T05:09:33.643Z,11.81
2022-11-15T05:12:49.359Z,11.86
2022-11-15T05:16:04.757Z,11.88
2022-11-15T05:19:20.587Z,11.84
2022-11-15T05:22:36.388Z,11.79
2022-11-15T05:25:52.626Z,11.80
2022-11-15T05:29:10.168Z,11.91
2022-11-15T05:32:25.190Z,12.07
2022-11-15T05:35:43.450Z,12.21
2022-11-15T05:38:58.670Z,12.24
2022-11-15T05:42:15.340Z,12.28
2022-11-15T05:45:32.301Z,12.32
2022-11-15T05:48:49.999Z,12.28
2022-11-15T05:52:06.332Z,12.29
2022-11-15T05:55:21.853Z,12.27
2022-11-15T05:58:38.498Z,12.26
2022-11-15T06:01:54.418Z,12.14
2022-11-15T06:05:10.479Z,12.21
2022-11-15T06:08:26.435Z,12.34
2022-11-15T06:11:42.547Z,12.39
2022-11-15T06:14:58.455Z,12.45
2022-11-15T06:18:14.740Z,12.50
2022-11-15T06:21:30.478Z,12.56
2022-11-15T06:24:46.918Z,12.66
2022-11-15T06:28:02.496Z,12.53
2022-11-15T06:31:18.395Z,12.70
2022-11-15T06:34:34.376Z,12.95
2022-11-15T06:37:49.442Z,13.05
2022-11-15T06:41:07.605Z,13.05
2022-11-15T06:44:23.555Z,12.94
2022-11-15T06:47:47.249Z,12.86
2022-11-15T06:51:04.340Z,12.81
2022-11-15T06:54:19.635Z,12.75
2022-11-15T06:57:35.677Z,12.82
2022-11-15T07:00:51.213Z,12.74
2022-11-15T07:04:06.482Z,12.83
2022-11-15T07:07:22.495Z,12.90
2022-11-15T07:10:38.107Z,13.02
2022-11-15T07:13:53.271Z,13.22
2022-11-15T07:17:08.521Z,13.35
2022-11-15T07:20:25.435Z,13.58
2022-11-15T07:23:40.726Z,13.72
2022-11-15T07:26:56.363Z,13.58
2022-11-15T07:30:14.506Z,13.60
2022-11-15T07:33:32.047Z,13.57
2022-11-15T07:36:47.281Z,13.57
2022-11-15T07:40:03.679Z,13.46
2022-11-15T07:43:19.343Z,13.29
2022-11-15T07:46:35.854Z,13.37
2022-11-15T07:49:51.568Z,13.37
2022-11-15T07:53:08.480Z,13.46
2022-11-15T07:56:24.412Z,13.57
2022-11-15T07:59:39.478Z,13.54
2022-11-15T08:03:03.374Z,13.49
2022-11-15T08:06:19.295Z,13.28
2022-11-15T08:09:35.521Z,13.17
2022-11-15T08:13:10.474Z,13.29
2022-11-15T08:16:27.155Z,13.43
2022-11-15T08:19:43.603Z,13.42
2022-11-15T08:23:00.475Z,13.33
2022-11-15T08:26:16.709Z,13.39
2022-11-15T08:29:32.674Z,13.40
2022-11-15T08:32:49.597Z,13.35
2022-11-15T08:36:05.728Z,13.33
2022-11-15T08:39:21.446Z,13.33
2022-11-15T08:42:37.439Z,13.44
2022-11-15T08:45:52.703Z,13.49
2022-11-15T08:49:08.712Z,13.50
2022-11-15T08:52:24.672Z,13.50
2022-11-15T08:55:41.063Z,13.60
2022-11-15T08:58:56.351Z,13.59
2022-11-15T09:02:14.325Z,13.48
2022-11-15T09:05:29.510Z,13.54
2022-11-15T09:08:47.829Z,13.62
2022-11-15T09:12:04.929Z,13.61
2022-11-15T09:15:20.841Z,13.52
2022-11-15T09:18:36.607Z,13.66
2022-11-15T09:21:52.487Z,13.61
2022-11-15T09:25:11.213Z,13.61
2022-11-15T09:28:28.417Z,13.64
2022-11-15T09:31:44.363Z,13.62
2022-11-15T09:34:59.590Z,13.66
2022-11-15T09:38:15.418Z,13.68
2022-11-15T09:42:09.984Z,13.83
2022-11-15T09:45:51.353Z,13.93
2022-11-15T09:49:08.796Z,13.97
2022-11-15T09:52:20.833Z,13.88
2022-11-15T09:55:22.453Z,13.93
2022-11-15T09:58:41.312Z,13.90
2022-11-15T10:01:57.009Z,13.94
2022-11-15T10:04:54.772Z,14.10
2022-11-15T10:08:06.291Z,14.15
2022-11-15T10:11:36.731Z,14.15
2022-11-15T10:14:34.573Z,14.36
2022-11-15T10:18:06.021Z,14.44
2022-11-15T10:21:25.656Z,14.31
2022-11-15T10:24:26.486Z,14.46
2022-11-15T10:27:24.661Z,14.67
2022-11-15T10:30:21.727Z,15.02
2022-11-15T10:33:30.603Z,15.19
2022-11-15T10:36:28.207Z,15.22
2022-11-15T10:39:25.744Z,15.28
2022-11-15T10:42:29.999Z,15.24
2022-11-15T10:45:32.652Z,15.46
2022-11-15T10:48:29.823Z,15.50
2022-11-15T10:51:32.094Z,15.59
2022-11-15T10:54:41.331Z,15.57
2022-11-15T10:57:39.246Z,15.39
2022-11-15T11:00:40.294Z,15.63
2022-11-15T11:03:41.403Z,15.63
2022-11-15T11:06:54.438Z,15.75
2022-11-15T11:10:50.859Z,15.63
2022-11-15T11:13:40.543Z,15.80
2022-11-15T11:16:45.789Z,15.85
2022-11-15T11:20:00.835Z,15.67
2022-11-15T11:23:23.718Z,15.31
2022-11-15T11:26:43.130Z,15.22
2022-11-15T11:30:03.143Z,15.28
2022-11-15T11:33:09.580Z,15.65
2022-11-15T11:36:40.428Z,15.79
2022-11-15T11:40:10.628Z,15.83
2022-11-15T11:43:19.622Z,15.22
2022-11-15T11:46:38.354Z,15.38
2022-11-15T11:49:50.148Z,15.28
2022-11-15T11:53:09.545Z,15.22
2022-11-15T11:56:27.696Z,15.05
2022-11-15T11:59:44.415Z,15.94
2022-11-15T12:02:48.728Z,15.62
2022-11-15T12:05:48.061Z,15.63
2022-11-15T12:08:51.568Z,16.13
2022-11-15T12:12:06.931Z,15.76
2022-11-15T12:15:09.789Z,15.88
2022-11-15T12:18:10.206Z,15.96
2022-11-15T12:21:09.238Z,16.49
2022-11-15T12:24:25.657Z,16.43
2022-11-15T12:27:34.861Z,16.39
2022-11-15T12:30:46.535Z,16.08
2022-11-15T12:33:47.894Z,15.78
2022-11-15T12:36:45.233Z,16.52
2022-11-15T12:40:11.357Z,16.79
2022-11-15T12:43:14.879Z,16.51
2022-11-15T12:46:14.843Z,16.09
2022-11-15T12:49:41.195Z,16.02
2022-11-15T12:52:38.448Z,15.81
2022-11-15T12:55:36.103Z,15.72
2022-11-15T12:58:49.457Z,15.39
2022-11-15T13:01:46.737Z,15.64
2022-11-15T13:04:43.930Z,16.11
2022-11-15T13:07:40.695Z,16.26
2022-11-15T13:10:37.977Z,16.17
2022-11-15T13:13:44.983Z,16.09
2022-11-15T13:16:41.970Z,15.94
2022-11-15T13:19:38.719Z,16.13
2022-11-15T13:23:00.000Z,15.90
2022-11-15T13:26:13.918Z,15.70
2022-11-15T13:29:19.285Z,15.98
2022-11-15T13:32:16.878Z,16.11
2022-11-15T13:35:23.677Z,16.77
2022-11-15T13:38:27.897Z,16.94
2022-11-15T13:41:32.583Z,16.81
2022-11-15T13:44:33.902Z,17.01
2022-11-15T13:47:31.071Z,16.97
2022-11-15T13:50:33.146Z,16.49
2022-11-15T13:53:32.742Z,16.30
2022-11-15T13:56:29.770Z,16.45
2022-11-15T13:59:27.828Z,16.05
2022-11-15T14:02:30.563Z,16.06
2022-11-15T14:05:27.828Z,16.31
2022-11-15T14:08:25.308Z,16.39
2022-11-15T14:11:22.587Z,16.61
2022-11-15T14:14:21.664Z,16.78
2022-11-15T14:17:35.314Z,16.82
2022-11-15T14:20:35.093Z,16.80
2022-11-15T14:23:31.419Z,16.55
2022-11-15T14:26:33.146Z,16.61
2022-11-15T14:29:30.288Z,16.49
2022-11-15T14:32:29.781Z,16.33
2022-11-15T14:35:26.653Z,16.21
2022-11-15T14:38:25.329Z,16.07
2022-11-15T14:41:24.999Z,15.98
2022-11-15T14:44:22.787Z,15.73
2022-11-15T14:47:20.075Z,15.78
2022-11-15T14:50:21.111Z,15.85
2022-11-15T14:53:18.714Z,15.82
2022-11-15T14:56:15.912Z,15.82
2022-11-15T14:59:12.585Z,15.73
2022-11-15T15:02:36.201Z,15.49
2022-11-15T15:05:38.387Z,15.29
2022-11-15T15:08:36.073Z,15.21
2022-11-15T15:11:32.921Z,15.11
2022-11-15T15:14:30.106Z,15.06
2022-11-15T15:17:26.830Z,14.97
2022-11-15T15:20:23.850Z,14.94
2022-11-15T15:23:21.265Z,14.82
2022-11-15T15:26:18.841Z,14.81
2022-11-15T15:29:16.470Z,14.85
2022-11-15T15:32:14.686Z,14.81
2022-11-15T15:35:15.604Z,14.79
2022-11-15T15:38:13.421Z,14.68
2022-11-15T15:41:14.958Z,14.56
2022-11-15T15:44:11.889Z,14.48
2022-11-15T15:47:23.897Z,14.39
2022-11-15T15:50:27.302Z,14.29
2022-11-15T15:53:24.857Z,14.18
2022-11-15T15:56:21.743Z,14.19
2022-11-15T15:59:19.142Z,14.06
2022-11-15T16:02:16.058Z,14.00
2022-11-15T16:05:13.408Z,13.95
2022-11-15T16:08:42.492Z,13.85
2022-11-15T16:11:46.473Z,13.86
2022-11-15T16:14:44.121Z,13.84
2022-11-15T16:17:44.159Z,13.84
2022-11-15T16:20:43.213Z,13.82
2022-11-15T16:23:40.298Z,13.79
2022-11-15T16:26:37.916Z,13.88
2022-11-15T16:29:35.033Z,13.81
2022-11-15T16:32:32.004Z,13.92
2022-11-15T16:35:29.038Z,13.93
2022-11-15T16:38:25.816Z,13.84
2022-11-15T16:41:22.973Z,13.91
2022-11-15T16:44:20.536Z,13.88
2022-11-15T16:47:19.185Z,13.86
2022-11-15T16:50:26.978Z,13.95
2022-11-15T16:53:24.075Z,13.85
2022-11-15T16:56:23.946Z,13.69
2022-11-15T16:59:21.673Z,13.54
2022-11-15T17:02:19.050Z,13.45
2022-11-15T17:05:20.015Z,13.29
2022-11-15T17:08:18.118Z,13.17
2022-11-15T17:11:16.536Z,13.25
2022-11-15T17:14:13.915Z,13.24
2022-11-15T17:17:10.821Z,13.15
2022-11-15T17:20:19.181Z,13.11
2022-11-15T17:23:17.537Z,13.04
2022-11-15T17:26:29.682Z,13.05
2022-11-15T17:29:30.429Z,13.15
2022-11-15T17:32:27.920Z,13.05
2022-11-15T17:35:24.967Z,12.87
2022-11-15T17:38:22.018Z,12.74
2022-11-15T17:41:21.201Z,12.78
2022-11-15T17:44:18.556Z,12.84
2022-11-15T17:47:16.229Z,12.90
2022-11-15T17:50:13.261Z,12.93
2022-11-15T17:53:10.110Z,12.93
2022-11-15T17:56:10.389Z,12.85
2022-11-15T17:59:13.690Z,12.92
2022-11-15T18:02:12.034Z,12.96
2022-11-15T18:05:09.063Z,13.11
2022-11-15T18:08:06.104Z,13.14
2022-11-15T18:11:16.230Z,13.31
2022-11-15T18:14:14.421Z,13.23
2022-11-15T18:17:12.002Z,13.17
2022-11-15T18:20:10.193Z,13.11
2022-11-15T18:23:07.148Z,12.99
2022-11-15T18:26:05.290Z,12.87
2022-11-15T18:29:04.892Z,12.88
2022-11-15T18:32:05.088Z,12.84
2022-11-15T18:35:03.274Z,12.84
2022-11-15T18:38:00.193Z,12.90
2022-11-15T18:40:58.845Z,12.93
2022-11-15T18:43:56.688Z,12.97
2022-11-15T18:46:54.025Z,12.95
2022-11-15T18:49:51.327Z,12.93
2022-11-15T18:52:49.062Z,12.99
2022-11-15T18:55:46.657Z,13.05
2022-11-15T18:58:45.768Z,13.08
2022-11-15T19:01:46.617Z,13.05
2022-11-15T19:04:44.146Z,13.08
2022-11-15T19:07:41.062Z,13.14
2022-11-15T19:10:38.096Z,13.08
2022-11-15T19:13:35.320Z,13.10
2022-11-15T19:16:34.777Z,13.12
2022-11-15T19:19:33.035Z,13.26
2022-11-15T19:22:30.310Z,13.27
2022-11-15T19:25:29.486Z,13.38
2022-11-15T19:28:27.988Z,13.34
2022-11-15T19:31:25.942Z,13.43
2022-11-15T19:34:23.177Z,13.39
2022-11-15T19:37:20.085Z,13.43
2022-11-15T19:40:17.424Z,13.50
2022-11-15T19:43:14.919Z,13.49
2022-11-15T19:46:12.371Z,13.57
2022-11-15T19:49:11.038Z,13.54
2022-11-15T19:52:09.197Z,13.47
2022-11-15T19:55:06.847Z,13.49
2022-11-15T19:58:04.374Z,13.74
2022-11-15T20:01:04.290Z,13.94
2022-11-15T20:04:01.356Z,13.97
2022-11-15T20:06:58.025Z,14.03
2022-11-15T20:09:55.401Z,14.02
2022-11-15T20:12:52.231Z,14.03
2022-11-15T20:15:48.997Z,14.03
2022-11-15T20:18:46.612Z,14.03
2022-11-15T20:21:44.281Z,13.95
2022-11-15T20:24:40.888Z,13.85
2022-11-15T20:27:38.370Z,13.78
2022-11-15T20:30:35.190Z,13.79
2022-11-15T20:33:32.213Z,13.80
2022-11-15T20:36:29.234Z,13.78
2022-11-15T20:39:26.731Z,13.78
2022-11-15T20:42:24.251Z,13.88
2022-11-15T20:45:21.176Z,13.83
2022-11-15T20:48:18.419Z,13.80
2022-11-15T20:51:17.993Z,13.81
2022-11-15T20:54:15.064Z,13.72
2022-11-15T20:57:11.909Z,13.67
2022-11-15T21:00:09.821Z,13.59
2022-11-15T21:03:07.756Z,13.56
2022-11-15T21:06:05.315Z,13.58
2022-11-15T21:09:20.398Z,13.60
2022-11-15T21:12:17.570Z,13.53
2022-11-15T21:15:15.744Z,13.49
2022-11-15T21:18:13.624Z,13.41
2022-11-15T21:21:11.080Z,13.31
2022-11-15T21:24:12.054Z,13.43
2022-11-15T21:27:09.380Z,13.35
2022-11-15T21:30:06.820Z,13.33
2022-11-15T21:33:04.127Z,13.45
2022-11-15T21:36:01.007Z,13.43
2022-11-15T21:38:58.219Z,13.43
2022-11-15T21:41:56.482Z,13.41
2022-11-15T21:44:53.554Z,13.46
2022-11-15T21:47:51.222Z,13.48
2022-11-15T21:50:58.198Z,13.43
2022-11-15T21:53:55.936Z,13.52
2022-11-15T21:56:53.528Z,13.64
2022-11-15T22:00:29.667Z,13.68
2022-11-15T22:03:27.421Z,13.60
2022-11-15T22:06:24.725Z,13.65
2022-11-15T22:09:22.248Z,13.53
2022-11-15T22:12:19.829Z,13.62
2022-11-15T22:15:17.275Z,13.57
2022-11-15T22:18:14.340Z,13.72
2022-11-15T22:21:14.540Z,13.66
2022-11-15T22:24:12.764Z,13.58
2022-11-15T22:27:10.365Z,13.57
2022-11-15T22:30:10.161Z,13.64
2022-11-15T22:33:07.490Z,13.77
2022-11-15T22:36:05.534Z,13.71
2022-11-15T22:39:02.402Z,13.81
2022-11-15T22:42:00.249Z,13.86
2022-11-15T22:44:57.323Z,13.89
2022-11-15T22:47:54.529Z,13.89
2022-11-15T22:50:52.343Z,13.92
2022-11-15T22:53:49.164Z,13.90
2022-11-15T22:56:58.601Z,13.81
2022-11-15T22:59:56.344Z,13.72
2022-11-15T23:02:54.505Z,13.76
2022-11-15T23:05:52.304Z,13.66
2022-11-15T23:08:49.314Z,13.53
2022-11-15T23:12:04.861Z,13.59
2022-11-15T23:15:02.301Z,13.60
2022-11-15T23:17:59.977Z,13.50
2022-11-15T23:20:58.727Z,13.44
2022-11-15T23:23:56.437Z,13.36
2022-11-15T23:26:56.819Z,13.32
2022-11-15T23:30:12.811Z,13.50
2022-11-15T23:33:32.575Z,13.56
2022-11-15T23:36:30.921Z,13.52
2022-11-15T23:39:28.626Z,13.47
2022-11-15T23:42:26.341Z,13.45
2022-11-15T23:45:23.336Z,13.41
2022-11-15T23:48:19.960Z,13.39
2022-11-15T23:51:17.815Z,13.33
2022-11-15T23:54:18.628Z,13.27
2022-11-15T23:57:19.626Z,13.09
